createdAt,value
2018-07-16T00:03:31.530Z,94781.34
2018-07-16T00:06:00.911Z,94784.65
2018-07-16T00:08:29.991Z,94793.45
2018-07-16T00:10:58.956Z,94796.45
2018-07-16T00:13:28.302Z,94792.90
2018-07-16T00:15:57.288Z,94793.66
2018-07-16T00:18:26.270Z,94794.41
2018-07-16T00:20:55.291Z,94804.05
2018-07-16T00:23:24.327Z,94806.40
2018-07-16T00:25:53.163Z,94807.66
2018-07-16T00:28:22.440Z,94807.23
2018-07-16T00:30:52.485Z,94792.64
2018-07-16T00:33:21.146Z,94789.27
2018-07-16T00:35:50.199Z,94807.22
2018-07-16T00:38:19.031Z,94800.64
2018-07-16T00:40:48.762Z,94804.08
2018-07-16T00:43:18.300Z,94806.50
2018-07-16T00:45:47.437Z,94808.02
2018-07-16T00:48:16.482Z,94807.05
2018-07-16T00:50:45.591Z,94811.86
2018-07-16T00:53:14.754Z,94817.43
2018-07-16T00:55:43.609Z,94810.53
2018-07-16T00:58:12.823Z,94810.64
2018-07-16T01:00:41.626Z,94806.45
2018-07-16T01:03:10.502Z,94820.98
2018-07-16T01:05:39.994Z,94816.92
2018-07-16T01:08:09.238Z,94817.02
2018-07-16T01:10:38.437Z,94821.52
2018-07-16T01:13:07.399Z,94817.30
2018-07-16T01:15:36.111Z,94817.91
2018-07-16T01:18:05.140Z,94817.87
2018-07-16T01:20:34.106Z,94821.62
2018-07-16T01:23:03.560Z,94823.75
2018-07-16T01:25:51.266Z,94820.03
2018-07-16T01:28:20.141Z,94813.13
2018-07-16T01:30:49.005Z,94822.52
2018-07-16T01:33:18.060Z,94826.05
2018-07-16T01:41:35.107Z,94839.58
2018-07-16T01:44:03.792Z,94827.31
2018-07-16T01:46:37.463Z,94826.95
2018-07-16T01:49:06.579Z,94824.56
2018-07-16T01:51:35.758Z,94827.25
2018-07-16T01:54:04.763Z,94835.94
2018-07-16T01:56:34.047Z,94826.61
2018-07-16T01:59:03.178Z,94823.38
2018-07-16T02:01:32.467Z,94827.00
2018-07-16T02:04:01.768Z,94833.28
2018-07-16T02:18:17.705Z,94833.80
2018-07-16T02:20:47.867Z,94826.17
2018-07-16T02:23:16.534Z,94826.05
2018-07-16T02:25:45.801Z,94831.69
2018-07-16T02:28:15.071Z,94835.62
2018-07-16T02:30:44.771Z,94843.80
2018-07-16T02:33:14.269Z,94840.42
2018-07-16T02:47:32.203Z,94829.41
2018-07-16T02:50:01.392Z,94829.23
2018-07-16T02:52:30.379Z,94831.52
2018-07-16T02:54:59.542Z,94832.91
2018-07-16T02:57:28.475Z,94838.63
2018-07-16T02:59:57.774Z,94841.19
2018-07-16T03:02:27.280Z,94836.84
2018-07-16T03:04:56.271Z,94838.05
2018-07-16T03:07:25.793Z,94840.74
2018-07-16T03:09:54.777Z,94829.58
2018-07-16T03:12:23.634Z,94837.64
2018-07-16T03:14:52.839Z,94831.78
2018-07-16T03:17:21.887Z,94830.58
2018-07-16T03:19:51.077Z,94827.73
2018-07-16T03:22:20.065Z,94838.05
2018-07-16T03:24:49.385Z,94839.19
2018-07-16T03:27:18.291Z,94832.56
2018-07-16T03:29:47.358Z,94832.57
2018-07-16T03:32:16.747Z,94837.27
2018-07-16T03:34:46.559Z,94835.67
2018-07-16T03:37:15.346Z,94839.47
2018-07-16T03:39:44.437Z,94841.73
2018-07-16T03:42:30.052Z,94839.52
2018-07-16T03:44:59.321Z,94838.06
2018-07-16T03:47:28.512Z,94839.58
2018-07-16T03:49:57.507Z,94838.03
2018-07-16T03:52:26.571Z,94838.38
2018-07-16T03:54:55.620Z,94834.91
2018-07-16T03:57:24.970Z,94828.16
2018-07-16T03:59:54.106Z,94824.02
2018-07-16T04:02:23.123Z,94826.83
2018-07-16T04:04:52.103Z,94825.97
2018-07-16T04:07:21.366Z,94831.67
2018-07-16T04:09:50.926Z,94823.97
2018-07-16T04:12:20.101Z,94829.47
2018-07-16T04:14:49.773Z,94822.48
2018-07-16T04:17:18.594Z,94817.37
2018-07-16T04:19:47.365Z,94817.02
2018-07-16T04:22:16.840Z,94813.13
2018-07-16T04:24:45.661Z,94812.33
2018-07-16T04:27:14.459Z,94812.80
2018-07-16T04:29:43.592Z,94805.77
2018-07-16T04:32:12.619Z,94807.95
2018-07-16T04:34:41.536Z,94806.97
2018-07-16T04:37:10.655Z,94807.31
2018-07-16T04:39:39.739Z,94806.91
2018-07-16T04:42:10.164Z,94808.02
2018-07-16T04:44:39.564Z,94803.26
2018-07-16T04:47:11.488Z,94798.81
2018-07-16T04:49:40.608Z,94804.16
2018-07-16T04:52:10.333Z,94801.91
2018-07-16T04:54:39.855Z,94804.84
2018-07-16T04:57:09.057Z,94804.39
2018-07-16T04:59:38.452Z,94792.94
2018-07-16T05:02:07.428Z,94796.14
2018-07-16T05:04:36.474Z,94797.06
2018-07-16T05:07:05.747Z,94797.07
2018-07-16T05:09:34.812Z,94798.86
2018-07-16T05:12:04.001Z,94800.09
2018-07-16T05:14:33.299Z,94791.69
2018-07-16T05:17:02.521Z,94798.28
2018-07-16T05:19:31.693Z,94793.52
2018-07-16T05:22:00.940Z,94787.14
2018-07-16T05:24:29.979Z,94780.74
2018-07-16T05:26:58.987Z,94783.09
2018-07-16T05:29:28.090Z,94785.39
2018-07-16T05:31:56.927Z,94780.27
2018-07-16T05:34:26.292Z,94783.56
2018-07-16T05:36:55.321Z,94782.83
2018-07-16T05:39:24.380Z,94773.44
2018-07-16T05:41:53.253Z,94785.72
2018-07-16T05:44:22.570Z,94791.97
2018-07-16T05:46:51.569Z,94786.77
2018-07-16T05:49:20.694Z,94794.43
2018-07-16T05:51:49.660Z,94787.37
2018-07-16T05:54:18.477Z,94783.52
2018-07-16T05:56:48.090Z,94794.36
2018-07-16T05:59:17.182Z,94784.68
2018-07-16T06:01:46.248Z,94782.95
2018-07-16T06:04:15.947Z,94787.17
2018-07-16T06:06:44.843Z,94782.23
2018-07-16T06:09:14.030Z,94777.12
2018-07-16T06:11:43.001Z,94784.98
2018-07-16T06:14:12.028Z,94787.37
2018-07-16T06:16:40.761Z,94782.73
2018-07-16T06:19:09.710Z,94774.24
2018-07-16T06:21:39.105Z,94775.34
2018-07-16T06:24:08.538Z,94787.67
2018-07-16T06:26:37.235Z,94783.31
2018-07-16T06:29:06.247Z,94774.20
2018-07-16T06:31:35.083Z,94771.66
2018-07-16T06:34:04.062Z,94773.49
2018-07-16T06:36:34.400Z,94767.23
2018-07-16T06:39:03.880Z,94771.27
2018-07-16T06:41:33.031Z,94766.18
2018-07-16T06:44:02.345Z,94769.02
2018-07-16T06:46:31.812Z,94765.33
2018-07-16T06:49:01.325Z,94772.78
2018-07-16T06:51:30.756Z,94762.14
2018-07-16T06:53:59.819Z,94760.88
2018-07-16T06:56:28.714Z,94765.29
2018-07-16T06:58:58.363Z,94760.82
2018-07-16T07:01:27.495Z,94764.05
2018-07-16T07:03:56.412Z,94766.10
2018-07-16T07:06:25.461Z,94762.38
2018-07-16T07:08:54.608Z,94751.27
2018-07-16T07:11:23.396Z,94753.55
2018-07-16T07:13:52.635Z,94745.50
2018-07-16T07:16:27.448Z,94736.36
2018-07-16T07:18:56.525Z,94740.53
2018-07-16T07:21:25.964Z,94740.54
2018-07-16T07:23:55.439Z,94737.42
2018-07-16T07:26:24.750Z,94740.43
2018-07-16T07:28:53.531Z,94737.67
2018-07-16T07:31:22.304Z,94741.95
2018-07-16T07:33:51.363Z,94742.61
2018-07-16T07:36:21.343Z,94745.56
2018-07-16T07:38:50.448Z,94746.42
2018-07-16T07:41:20.241Z,94745.16
2018-07-16T07:43:50.030Z,94750.91
2018-07-16T07:46:18.870Z,94748.23
2018-07-16T07:48:48.161Z,94752.53
2018-07-16T07:51:17.008Z,94750.48
2018-07-16T07:53:46.082Z,94749.22
2018-07-16T07:56:15.314Z,94753.77
2018-07-16T07:58:44.306Z,94756.88
2018-07-16T08:01:13.734Z,94749.83
2018-07-16T08:03:43.055Z,94751.59
2018-07-16T08:06:12.033Z,94752.84
2018-07-16T08:08:41.088Z,94749.93
2018-07-16T08:11:10.141Z,94751.14
2018-07-16T08:13:39.222Z,94751.02
2018-07-16T08:16:08.391Z,94741.44
2018-07-16T08:18:37.561Z,94745.88
2018-07-16T08:21:06.984Z,94743.41
2018-07-16T08:23:35.879Z,94747.69
2018-07-16T08:26:05.159Z,94749.77
2018-07-16T08:28:34.175Z,94755.89
2018-07-16T08:31:03.271Z,94743.88
2018-07-16T08:33:32.461Z,94739.88
2018-07-16T08:36:01.460Z,94746.50
2018-07-16T08:38:30.663Z,94743.36
2018-07-16T08:41:00.085Z,94742.63
2018-07-16T08:43:29.083Z,94737.00
2018-07-16T08:45:58.438Z,94736.22
2018-07-16T08:48:27.255Z,94743.88
2018-07-16T08:50:56.127Z,94741.81
2018-07-16T08:53:25.242Z,94733.40
2018-07-16T08:55:54.647Z,94739.34
2018-07-16T08:58:23.553Z,94745.33
2018-07-16T09:00:52.778Z,94754.63
2018-07-16T09:03:22.823Z,94754.03
2018-07-16T09:06:08.037Z,94758.30
2018-07-16T09:08:37.682Z,94753.52
2018-07-16T09:11:06.949Z,94758.20
2018-07-16T09:13:36.165Z,94760.63
2018-07-16T09:16:05.199Z,94758.51
2018-07-16T09:18:33.934Z,94765.88
2018-07-16T09:21:02.946Z,94761.70
2018-07-16T09:23:32.091Z,94762.69
2018-07-16T09:26:01.223Z,94756.58
2018-07-16T09:28:30.422Z,94758.84
2018-07-16T09:30:59.705Z,94753.86
2018-07-16T09:33:28.605Z,94758.11
2018-07-16T09:35:57.608Z,94763.40
2018-07-16T09:38:26.463Z,94758.91
2018-07-16T09:40:55.601Z,94748.27
2018-07-16T09:43:24.476Z,94753.84
2018-07-16T09:45:53.301Z,94762.30
2018-07-16T09:48:22.563Z,94757.75
2018-07-16T09:50:51.500Z,94752.52
2018-07-16T09:53:20.170Z,94748.72
2018-07-16T09:55:49.053Z,94750.97
2018-07-16T09:58:18.331Z,94741.64
2018-07-16T10:01:55.109Z,94729.60
2018-07-16T10:04:23.766Z,94732.64
2018-07-16T10:06:52.715Z,94735.81
2018-07-16T10:09:22.123Z,94730.09
2018-07-16T10:11:51.098Z,94721.55
2018-07-16T10:14:20.040Z,94711.39
2018-07-16T10:16:49.170Z,94709.10
2018-07-16T10:19:18.106Z,94712.86
2018-07-16T10:21:47.184Z,94704.81
2018-07-16T10:24:16.251Z,94703.91
2018-07-16T10:26:45.190Z,94712.87
2018-07-16T10:29:14.380Z,94706.19
2018-07-16T10:31:43.801Z,94697.53
2018-07-16T10:34:13.319Z,94707.20
2018-07-16T10:36:42.081Z,94720.13
2018-07-16T10:39:11.237Z,94713.82
2018-07-16T10:41:40.281Z,94708.34
2018-07-16T10:44:09.277Z,94713.26
2018-07-16T10:46:38.478Z,94708.39
2018-07-16T10:49:08.060Z,94720.03
2018-07-16T10:51:36.847Z,94718.56
2018-07-16T10:54:05.880Z,94720.52
2018-07-16T10:56:34.824Z,94711.92
2018-07-16T10:59:03.711Z,94711.30
2018-07-16T11:01:32.551Z,94710.89
2018-07-16T11:04:01.709Z,94718.84
2018-07-16T11:06:30.904Z,94714.66
2018-07-16T11:09:00.067Z,94721.27
2018-07-16T11:11:28.906Z,94717.62
2018-07-16T11:13:57.895Z,94714.25
2018-07-16T11:16:27.117Z,94703.48
2018-07-16T11:18:56.056Z,94686.84
2018-07-16T11:21:24.880Z,94699.72
2018-07-16T11:23:53.899Z,94692.55
2018-07-16T11:26:22.957Z,94690.64
2018-07-16T11:28:52.044Z,94686.33
2018-07-16T11:31:21.156Z,94680.50
2018-07-16T11:33:50.257Z,94688.19
2018-07-16T11:36:19.277Z,94673.00
2018-07-16T11:38:48.593Z,94685.45
2018-07-16T11:41:18.173Z,94680.13
2018-07-16T11:43:47.177Z,94686.02
2018-07-16T11:46:16.096Z,94679.00
2018-07-16T11:48:45.041Z,94675.55
2018-07-16T11:51:14.032Z,94677.89
2018-07-16T11:53:43.276Z,94679.30
2018-07-16T11:56:12.182Z,94673.75
2018-07-16T11:58:40.988Z,94675.89
2018-07-16T12:01:09.823Z,94677.44
2018-07-16T12:03:38.771Z,94683.48
2018-07-16T12:06:13.402Z,94685.45
2018-07-16T12:08:42.398Z,94678.58
2018-07-16T12:11:11.282Z,94682.56
2018-07-16T12:13:40.168Z,94684.92
2018-07-16T12:16:09.135Z,94680.66
2018-07-16T12:18:38.145Z,94678.16
2018-07-16T12:21:07.473Z,94685.50
2018-07-16T12:23:36.246Z,94677.27
2018-07-16T12:26:05.974Z,94667.16
2018-07-16T12:28:34.851Z,94673.18
2018-07-16T12:31:03.547Z,94664.34
2018-07-16T12:33:32.521Z,94669.82
2018-07-16T12:36:02.350Z,94662.61
2018-07-16T12:38:31.524Z,94665.28
2018-07-16T12:41:00.413Z,94662.32
2018-07-16T12:43:29.551Z,94657.37
2018-07-16T12:45:58.620Z,94659.28
2018-07-16T12:48:27.921Z,94647.73
2018-07-16T12:50:57.030Z,94656.77
2018-07-16T12:53:25.990Z,94653.50
2018-07-16T12:55:55.100Z,94653.56
2018-07-16T12:58:24.311Z,94649.88
2018-07-16T13:00:52.979Z,94642.82
2018-07-16T13:03:21.763Z,94639.54
2018-07-16T13:05:51.409Z,94641.23
2018-07-16T13:08:20.183Z,94636.59
2018-07-16T13:10:49.242Z,94637.02
2018-07-16T13:13:18.070Z,94635.36
2018-07-16T13:15:47.713Z,94635.94
2018-07-16T13:18:16.627Z,94638.62
2018-07-16T13:20:45.287Z,94644.50
2018-07-16T13:23:14.348Z,94640.34
2018-07-16T13:25:43.433Z,94646.17
2018-07-16T13:28:12.474Z,94643.77
2018-07-16T13:30:41.424Z,94643.16
2018-07-16T13:33:10.427Z,94635.23
2018-07-16T13:35:39.644Z,94648.02
2018-07-16T13:38:08.743Z,94640.35
2018-07-16T13:40:37.789Z,94639.38
2018-07-16T13:43:06.663Z,94631.36
2018-07-16T13:45:35.314Z,94627.19
2018-07-16T13:48:04.315Z,94627.42
2018-07-16T13:50:33.743Z,94621.99
2018-07-16T13:53:03.313Z,94621.81
2018-07-16T13:55:32.243Z,94620.36
2018-07-16T13:58:01.429Z,94621.63
2018-07-16T14:00:30.608Z,94617.00
2018-07-16T14:02:59.688Z,94616.98
2018-07-16T14:05:28.608Z,94618.66
2018-07-16T14:07:57.756Z,94621.22
2018-07-16T14:10:26.620Z,94619.72
2018-07-16T14:12:55.622Z,94611.77
2018-07-16T14:15:24.494Z,94619.11
2018-07-16T14:17:53.772Z,94608.67
2018-07-16T14:20:23.020Z,94609.98
2018-07-16T14:22:51.838Z,94604.07
2018-07-16T14:25:20.963Z,94603.19
2018-07-16T14:27:50.028Z,94611.87
2018-07-16T14:30:18.869Z,94610.73
2018-07-16T14:32:47.975Z,94597.44
2018-07-16T14:35:17.006Z,94601.93
2018-07-16T14:37:45.864Z,94602.39
2018-07-16T14:40:14.975Z,94590.13
2018-07-16T14:42:44.154Z,94589.22
2018-07-16T14:45:13.246Z,94589.30
2018-07-16T14:47:42.407Z,94597.37
2018-07-16T14:50:11.477Z,94595.70
2018-07-16T14:52:40.534Z,94596.23
2018-07-16T14:55:09.504Z,94589.61
2018-07-16T14:57:39.178Z,94588.38
2018-07-16T15:00:08.879Z,94584.84
2018-07-16T15:02:37.757Z,94585.06
2018-07-16T15:05:06.970Z,94587.54
2018-07-16T15:07:35.870Z,94580.92
2018-07-16T15:10:04.831Z,94579.13
2018-07-16T15:12:34.110Z,94579.70
2018-07-16T15:15:03.768Z,94573.50
2018-07-16T15:17:33.301Z,94566.63
2018-07-16T15:20:02.370Z,94567.39
2018-07-16T15:22:31.779Z,94552.31
2018-07-16T15:25:00.580Z,94551.70
2018-07-16T15:27:29.871Z,94546.83
2018-07-16T15:29:58.882Z,94548.02
2018-07-16T15:32:27.866Z,94542.52
2018-07-16T15:34:57.197Z,94543.45
2018-07-16T15:37:27.090Z,94543.37
2018-07-16T15:39:56.259Z,94539.14
2018-07-16T15:42:25.641Z,94556.05
2018-07-16T15:44:54.674Z,94558.14
2018-07-16T15:47:23.667Z,94561.39
2018-07-16T15:49:52.423Z,94566.02
2018-07-16T15:52:21.952Z,94558.08
2018-07-16T15:54:50.748Z,94552.19
2018-07-16T15:57:20.029Z,94562.09
2018-07-16T15:59:48.823Z,94560.81
2018-07-16T16:02:17.749Z,94555.97
2018-07-16T16:04:47.804Z,94550.09
2018-07-16T16:07:16.751Z,94553.75
2018-07-16T16:09:46.505Z,94557.34
2018-07-16T16:12:15.569Z,94566.81
2018-07-16T16:14:44.564Z,94568.73
2018-07-16T16:17:14.906Z,94561.81
2018-07-16T16:19:44.120Z,94570.80
2018-07-16T16:22:12.797Z,94572.25
2018-07-16T16:24:42.290Z,94577.05
2018-07-16T16:27:11.227Z,94577.70
2018-07-16T16:29:40.782Z,94577.28
2018-07-16T16:32:10.090Z,94576.88
2018-07-16T16:34:38.995Z,94582.98
2018-07-16T16:37:08.070Z,94590.36
2018-07-16T16:39:37.378Z,94594.23
2018-07-16T16:42:07.005Z,94609.53
2018-07-16T16:44:36.092Z,94604.66
2018-07-16T16:47:05.477Z,94600.34
2018-07-16T16:49:34.810Z,94594.80
2018-07-16T16:52:03.897Z,94598.97
2018-07-16T16:54:34.184Z,94593.09
2018-07-16T16:57:03.145Z,94599.28
2018-07-16T16:59:34.372Z,94599.84
2018-07-16T17:02:04.243Z,94593.22
2018-07-16T17:04:33.347Z,94599.91
2018-07-16T17:07:03.324Z,94592.34
2018-07-16T17:09:34.772Z,94600.22
2018-07-16T17:12:05.476Z,94599.02
2018-07-16T17:14:37.826Z,94599.42
2018-07-16T17:17:07.018Z,94603.64
2018-07-16T17:19:36.683Z,94600.11
2018-07-16T17:22:08.183Z,94601.67
2018-07-16T17:24:38.331Z,94593.39
2018-07-16T17:27:07.302Z,94597.77
2018-07-16T17:29:38.911Z,94600.38
2018-07-16T17:32:11.204Z,94598.72
2018-07-16T17:34:40.540Z,94592.92
2018-07-16T17:37:10.126Z,94585.34
2018-07-16T17:39:39.685Z,94577.05
2018-07-16T17:42:09.295Z,94575.95
2018-07-16T17:44:38.597Z,94585.12
2018-07-16T17:47:07.698Z,94590.78
2018-07-16T17:49:37.203Z,94591.70
2018-07-16T17:52:07.222Z,94592.09
2018-07-16T17:54:38.583Z,94595.23
2018-07-16T17:57:07.575Z,94598.03
2018-07-16T17:59:36.982Z,94602.44
2018-07-16T18:02:06.519Z,94596.29
2018-07-16T18:04:35.781Z,94593.89
2018-07-16T18:07:04.561Z,94602.21
2018-07-16T18:09:33.508Z,94585.66
2018-07-16T18:12:02.711Z,94587.73
2018-07-16T18:14:31.973Z,94576.83
2018-07-16T18:17:01.493Z,94572.18
2018-07-16T18:19:30.771Z,94572.18
2018-07-16T18:21:59.770Z,94576.94
2018-07-16T18:24:29.374Z,94572.08
2018-07-16T18:26:58.516Z,94567.20
2018-07-16T18:29:27.361Z,94572.91
2018-07-16T18:31:56.467Z,94576.38
2018-07-16T18:34:25.356Z,94578.97
2018-07-16T18:36:54.752Z,94585.61
2018-07-16T18:39:24.287Z,94581.33
2018-07-16T18:41:53.582Z,94586.19
2018-07-16T18:44:22.667Z,94589.06
2018-07-16T18:46:52.178Z,94587.89
2018-07-16T18:49:22.017Z,94585.19
2018-07-16T18:51:50.946Z,94590.86
2018-07-16T18:54:20.432Z,94594.67
2018-07-16T18:56:49.466Z,94585.35
2018-07-16T18:59:18.365Z,94584.53
2018-07-16T19:01:47.510Z,94554.87
2018-07-16T19:04:16.875Z,94578.99
2018-07-16T19:06:46.546Z,94578.16
2018-07-16T19:09:16.187Z,94574.23
2018-07-16T19:11:45.285Z,94579.74
2018-07-16T19:14:15.008Z,94578.82
2018-07-16T19:16:44.051Z,94583.78
2018-07-16T19:19:12.800Z,94586.73
2018-07-16T19:21:42.060Z,94576.92
2018-07-16T19:24:11.891Z,94586.19
2018-07-16T19:26:41.056Z,94581.23
2018-07-16T19:29:10.729Z,94582.53
2018-07-16T19:31:39.722Z,94577.30
2018-07-16T19:34:08.759Z,94570.30
2018-07-16T19:36:38.413Z,94575.05
2018-07-16T19:39:09.374Z,94579.19
2018-07-16T19:41:38.444Z,94577.86
2018-07-16T19:44:08.139Z,94566.75
2018-07-16T19:46:37.483Z,94567.59
2018-07-16T19:49:07.219Z,94574.13
2018-07-16T19:51:36.155Z,94574.02
2018-07-16T19:54:06.139Z,94563.99
2018-07-16T19:56:35.572Z,94572.19
2018-07-16T19:59:04.375Z,94581.55
2018-07-16T20:01:33.409Z,94584.66
2018-07-16T20:04:02.276Z,94576.49
2018-07-16T20:06:31.951Z,94576.84
2018-07-16T20:09:01.793Z,94586.56
2018-07-16T20:11:30.788Z,94580.78
2018-07-16T20:14:02.061Z,94582.55
2018-07-16T20:16:42.102Z,94572.25
2018-07-16T20:19:11.593Z,94560.48
2018-07-16T20:21:40.666Z,94554.41
2018-07-16T20:24:10.552Z,94555.99
2018-07-16T20:26:39.390Z,94557.39
2018-07-16T20:29:08.028Z,94552.28
2018-07-16T20:31:37.903Z,94547.61
2018-07-16T20:34:06.688Z,94552.12
2018-07-16T20:36:35.477Z,94545.09
2018-07-16T20:39:06.849Z,94539.89
2018-07-16T20:41:37.059Z,94544.17
2018-07-16T20:44:06.154Z,94540.33
2018-07-16T20:46:35.248Z,94540.44
2018-07-16T20:49:04.306Z,94532.41
2018-07-16T20:51:33.434Z,94529.50
2018-07-16T20:54:02.648Z,94519.89
2018-07-16T20:56:31.728Z,94517.38
2018-07-16T20:59:00.625Z,94523.52
2018-07-16T21:01:29.742Z,94523.03
2018-07-16T21:03:58.635Z,94521.18
2018-07-16T21:06:27.508Z,94522.76
2018-07-16T21:08:56.827Z,94525.91
2018-07-16T21:11:26.971Z,94519.82
2018-07-16T21:13:55.892Z,94525.81
2018-07-16T21:16:25.549Z,94532.12
2018-07-16T21:18:54.664Z,94535.75
2018-07-16T21:21:23.706Z,94529.10
2018-07-16T21:23:52.707Z,94533.16
2018-07-16T21:26:22.018Z,94529.83
2018-07-16T21:28:51.529Z,94521.91
2018-07-16T21:31:20.403Z,94527.34
2018-07-16T21:33:49.526Z,94530.56
2018-07-16T21:36:18.723Z,94538.50
2018-07-16T21:38:47.807Z,94533.58
2018-07-16T21:41:16.954Z,94528.98
2018-07-16T21:43:46.359Z,94523.53
2018-07-16T21:46:15.279Z,94518.34
2018-07-16T21:48:44.235Z,94514.16
2018-07-16T21:51:13.888Z,94516.84
2018-07-16T21:53:43.445Z,94519.23
2018-07-16T21:56:12.656Z,94517.47
2018-07-16T21:58:41.602Z,94523.11
2018-07-16T22:01:10.567Z,94528.29
2018-07-16T22:03:40.116Z,94527.18
2018-07-16T22:06:09.299Z,94525.08
2018-07-16T22:08:38.194Z,94524.10
2018-07-16T22:11:07.102Z,94531.88
2018-07-16T22:13:35.975Z,94532.70
2018-07-16T22:16:05.203Z,94529.27
2018-07-16T22:18:34.607Z,94529.80
2018-07-16T22:21:03.734Z,94534.73
2018-07-16T22:23:33.197Z,94535.08
2018-07-16T22:26:02.363Z,94534.36
2018-07-16T22:28:31.134Z,94532.41
2018-07-16T22:31:00.115Z,94530.75
2018-07-16T22:33:29.206Z,94530.53
2018-07-16T22:35:58.374Z,94532.19
2018-07-16T22:38:27.464Z,94527.72
2018-07-16T22:40:56.362Z,94530.95
2018-07-16T22:43:25.748Z,94520.89
2018-07-16T22:45:54.865Z,94527.52
2018-07-16T22:48:24.258Z,94521.64
2018-07-16T22:50:53.177Z,94521.44
2018-07-16T22:53:22.343Z,94517.67
2018-07-16T22:55:51.466Z,94516.30
2018-07-16T22:58:20.761Z,94518.98
2018-07-16T23:00:49.611Z,94527.55
2018-07-16T23:03:18.759Z,94519.41
2018-07-16T23:05:47.837Z,94504.95
2018-07-16T23:08:17.847Z,94506.98
2018-07-16T23:10:47.494Z,94500.47
2018-07-16T23:13:16.341Z,94512.43
2018-07-16T23:15:45.139Z,94513.27
2018-07-16T23:18:14.342Z,94514.75
2018-07-16T23:20:43.237Z,94515.17
2018-07-16T23:23:12.658Z,94503.95
2018-07-16T23:25:41.727Z,94508.03
2018-07-16T23:28:10.839Z,94493.97
2018-07-16T23:30:39.938Z,94496.66
2018-07-16T23:33:09.683Z,94496.66
2018-07-16T23:35:38.546Z,94496.84
2018-07-16T23:38:07.719Z,94496.77
2018-07-16T23:40:36.445Z,94497.66
2018-07-16T23:43:05.313Z,94495.66
2018-07-16T23:45:34.050Z,94504.32
2018-07-16T23:48:03.152Z,94503.69
2018-07-16T23:50:32.411Z,94504.44
2018-07-16T23:53:02.207Z,94508.60
2018-07-16T23:55:31.907Z,94501.76
2018-07-16T23:58:00.702Z,94490.71
